createdAt,value
2018-03-16T00:00:01.231Z,47.00
2018-03-16T00:01:01.225Z,51.30
2018-03-16T00:02:01.182Z,52.30
2018-03-16T00:03:01.162Z,43.10
2018-03-16T00:04:01.139Z,51.60
2018-03-16T00:05:01.126Z,59.40
2018-03-16T00:06:01.101Z,58.70
2018-03-16T00:07:01.074Z,55.10
2018-03-16T00:08:01.058Z,51.40
2018-03-16T00:09:01.028Z,39.90
2018-03-16T00:10:01.006Z,58.60
2018-03-16T00:11:00.982Z,58.00
2018-03-16T00:12:00.959Z,58.80
2018-03-16T00:13:00.938Z,61.20
2018-03-16T00:14:00.913Z,65.20
2018-03-16T00:15:00.892Z,64.50
2018-03-16T00:16:00.868Z,57.40
2018-03-16T00:17:00.852Z,66.40
2018-03-16T00:18:00.907Z,59.70
2018-03-16T00:19:00.799Z,65.80
2018-03-16T00:20:00.777Z,68.50
2018-03-16T00:21:00.801Z,70.30
2018-03-16T00:22:00.732Z,65.30
2018-03-16T00:23:00.726Z,64.20
2018-03-16T00:24:00.686Z,69.60
2018-03-16T00:25:00.663Z,64.90
2018-03-16T00:26:00.635Z,65.50
2018-03-16T00:27:00.616Z,67.00
2018-03-16T00:28:00.723Z,67.20
2018-03-16T00:29:00.566Z,67.50
2018-03-16T00:30:00.546Z,69.40
2018-03-16T00:31:00.530Z,66.90
2018-03-16T00:32:00.505Z,68.00
2018-03-16T00:33:00.475Z,66.20
2018-03-16T00:34:00.450Z,75.30
2018-03-16T00:35:00.430Z,76.20
2018-03-16T00:36:00.406Z,71.80
2018-03-16T00:37:00.387Z,72.50
2018-03-16T00:38:00.358Z,72.10
2018-03-16T00:39:00.343Z,73.40
2018-03-16T00:40:00.315Z,75.70
2018-03-16T00:41:00.289Z,71.10
2018-03-16T00:42:00.265Z,76.10
2018-03-16T00:43:00.250Z,77.70
2018-03-16T00:44:00.350Z,75.50
2018-03-16T00:45:00.199Z,75.70
2018-03-16T00:46:00.172Z,73.40
2018-03-16T00:47:00.173Z,68.70
2018-03-16T00:48:00.129Z,63.50
2018-03-16T00:49:00.112Z,72.60
2018-03-16T00:50:00.136Z,71.40
2018-03-16T00:51:00.058Z,63.70
2018-03-16T00:52:00.050Z,75.00
2018-03-16T00:53:00.013Z,76.30
2018-03-16T00:53:59.995Z,73.60
2018-03-16T00:54:59.968Z,72.00
2018-03-16T00:55:59.945Z,73.20
2018-03-16T00:56:59.935Z,71.80
2018-03-16T00:57:59.949Z,71.80
2018-03-16T00:58:59.873Z,67.20
2018-03-16T00:59:59.851Z,71.30
2018-03-16T01:00:59.834Z,66.50
2018-03-16T01:01:59.812Z,75.60
2018-03-16T01:02:59.784Z,72.20
2018-03-16T01:03:59.763Z,73.80
2018-03-16T01:04:59.738Z,69.40
2018-03-16T01:05:59.716Z,74.00
2018-03-16T01:06:59.693Z,69.20
2018-03-16T01:07:59.665Z,66.20
2018-03-16T01:08:59.646Z,69.80
2018-03-16T01:09:59.620Z,71.00
2018-03-16T01:10:59.600Z,67.10
2018-03-16T01:11:59.579Z,61.50
2018-03-16T01:12:59.552Z,74.00
2018-03-16T01:13:59.584Z,70.60
2018-03-16T01:14:59.508Z,75.30
2018-03-16T01:15:59.485Z,75.80
2018-03-16T01:16:59.468Z,76.00
2018-03-16T01:17:59.440Z,77.90
2018-03-16T01:18:59.414Z,78.30
2018-03-16T01:19:59.392Z,78.10
2018-03-16T01:20:59.378Z,76.00
2018-03-16T01:21:59.343Z,75.70
2018-03-16T01:22:59.320Z,72.50
2018-03-16T01:23:59.412Z,73.70
2018-03-16T01:24:59.280Z,75.60
2018-03-16T01:25:59.254Z,74.70
2018-03-16T01:26:59.254Z,75.00
2018-03-16T01:27:59.208Z,73.30
2018-03-16T01:28:59.183Z,69.40
2018-03-16T01:29:59.159Z,74.50
2018-03-16T01:30:59.138Z,73.10
2018-03-16T01:31:59.113Z,76.10
2018-03-16T01:32:59.091Z,75.10
2018-03-16T01:33:59.069Z,71.90
2018-03-16T01:34:59.051Z,78.00
2018-03-16T01:35:59.022Z,71.30
2018-03-16T01:36:59.002Z,75.20
2018-03-16T01:37:58.979Z,74.60
2018-03-16T01:38:58.951Z,73.40
2018-03-16T01:39:58.930Z,75.90
2018-03-16T01:40:58.906Z,71.20
2018-03-16T01:41:58.881Z,73.10
2018-03-16T01:42:58.859Z,74.50
2018-03-16T01:43:58.845Z,77.10
2018-03-16T01:44:58.819Z,77.70
2018-03-16T01:45:58.790Z,71.00
2018-03-16T01:46:58.771Z,79.90
2018-03-16T01:47:58.745Z,69.20
2018-03-16T01:48:58.822Z,81.00
2018-03-16T01:49:58.698Z,77.70
2018-03-16T01:50:58.675Z,73.90
2018-03-16T01:51:58.688Z,73.30
2018-03-16T01:52:58.627Z,74.50
2018-03-16T01:53:58.604Z,73.70
2018-03-16T01:54:58.590Z,74.60
2018-03-16T01:55:58.565Z,74.80
2018-03-16T01:56:58.535Z,76.40
2018-03-16T01:57:58.515Z,72.70
2018-03-16T01:58:58.499Z,72.30
2018-03-16T01:59:58.475Z,76.10
2018-03-16T02:00:58.453Z,75.50
2018-03-16T02:01:58.424Z,75.20
2018-03-16T02:02:58.397Z,75.10
2018-03-16T02:03:58.375Z,69.80
2018-03-16T02:04:58.354Z,76.00
2018-03-16T02:05:58.329Z,72.10
2018-03-16T02:06:58.305Z,63.10
2018-03-16T02:07:58.283Z,74.40
2018-03-16T02:08:58.262Z,72.60
2018-03-16T02:09:58.243Z,78.00
2018-03-16T02:10:58.215Z,81.30
2018-03-16T02:11:58.196Z,81.90
2018-03-16T02:12:58.168Z,79.70
2018-03-16T02:13:58.145Z,74.90
2018-03-16T02:14:58.123Z,72.80
2018-03-16T02:15:58.105Z,64.40
2018-03-16T02:16:58.083Z,77.70
2018-03-16T02:17:58.052Z,69.80
2018-03-16T02:18:58.101Z,75.50
2018-03-16T02:19:58.005Z,79.50
2018-03-16T02:20:57.984Z,73.30
2018-03-16T02:21:57.979Z,76.20
2018-03-16T02:22:57.935Z,68.90
2018-03-16T02:23:57.914Z,63.90
2018-03-16T02:24:57.894Z,74.50
2018-03-16T02:25:57.866Z,73.60
2018-03-16T02:26:57.842Z,82.50
2018-03-16T02:27:57.821Z,80.80
2018-03-16T02:28:57.795Z,77.90
2018-03-16T02:29:57.781Z,75.60
2018-03-16T02:30:57.751Z,64.10
2018-03-16T02:31:57.733Z,83.20
2018-03-16T02:32:57.706Z,83.40
2018-03-16T02:33:57.682Z,88.70
2018-03-16T02:34:57.670Z,87.60
2018-03-16T02:35:57.636Z,76.80
2018-03-16T02:36:57.627Z,81.20
2018-03-16T02:37:57.607Z,74.10
2018-03-16T02:38:57.581Z,86.10
2018-03-16T02:39:57.547Z,83.50
2018-03-16T02:40:57.516Z,83.30
2018-03-16T02:41:57.500Z,86.90
2018-03-16T02:42:57.470Z,67.30
2018-03-16T02:43:57.454Z,82.50
2018-03-16T02:44:57.430Z,82.80
2018-03-16T02:45:57.400Z,80.40
2018-03-16T02:46:57.379Z,91.00
2018-03-16T02:47:57.523Z,90.00
2018-03-16T02:48:57.332Z,90.90
2018-03-16T02:49:57.308Z,88.80
2018-03-16T02:50:57.294Z,88.10
2018-03-16T02:51:57.261Z,89.60
2018-03-16T02:52:57.234Z,79.20
2018-03-16T02:53:57.211Z,86.80
2018-03-16T02:54:57.258Z,86.20
2018-03-16T02:55:57.168Z,87.20
2018-03-16T02:56:57.141Z,88.20
2018-03-16T02:57:57.126Z,90.60
2018-03-16T02:58:57.092Z,82.30
2018-03-16T02:59:57.069Z,88.00
2018-03-16T03:00:57.047Z,91.70
2018-03-16T03:01:57.022Z,88.90
2018-03-16T03:02:56.999Z,78.20
2018-03-16T03:03:56.982Z,85.70
2018-03-16T03:04:56.957Z,92.10
2018-03-16T03:05:56.929Z,90.10
2018-03-16T03:06:56.907Z,68.40
2018-03-16T03:07:56.894Z,94.00
2018-03-16T03:08:56.865Z,84.90
2018-03-16T03:09:56.839Z,85.80
2018-03-16T03:10:56.812Z,89.00
2018-03-16T03:11:56.791Z,93.90
2018-03-16T03:12:56.765Z,87.20
2018-03-16T03:13:56.739Z,99.40
2018-03-16T03:14:56.718Z,93.00
2018-03-16T03:15:56.702Z,88.00
2018-03-16T03:16:56.669Z,83.90
2018-03-16T03:17:56.644Z,87.10
2018-03-16T03:18:56.624Z,90.20
2018-03-16T03:19:56.728Z,90.50
2018-03-16T03:20:56.575Z,62.60
2018-03-16T03:21:56.554Z,83.60
2018-03-16T03:22:56.585Z,83.80
2018-03-16T03:23:56.506Z,88.40
2018-03-16T03:24:56.483Z,92.10
2018-03-16T03:25:56.462Z,90.50
2018-03-16T03:26:56.434Z,81.50
2018-03-16T03:27:56.422Z,88.50
2018-03-16T03:28:56.390Z,91.00
2018-03-16T03:29:56.363Z,86.90
2018-03-16T03:30:56.348Z,99.00
2018-03-16T03:31:56.319Z,85.20
2018-03-16T03:32:56.292Z,86.30
2018-03-16T03:33:56.274Z,89.80
2018-03-16T03:34:56.247Z,92.70
2018-03-16T03:35:56.222Z,88.30
2018-03-16T03:36:56.202Z,91.90
2018-03-16T03:37:56.175Z,92.00
2018-03-16T03:38:56.152Z,88.00
2018-03-16T03:39:56.142Z,89.40
2018-03-16T03:40:56.104Z,92.00
2018-03-16T03:41:56.082Z,89.00
2018-03-16T03:42:56.061Z,95.80
2018-03-16T03:43:56.035Z,95.40
2018-03-16T03:44:56.011Z,81.70
2018-03-16T03:45:55.990Z,97.70
2018-03-16T03:46:55.967Z,99.00
2018-03-16T03:47:55.941Z,98.00
2018-03-16T03:48:55.916Z,80.50
2018-03-16T03:49:55.894Z,96.40
2018-03-16T03:50:55.869Z,92.10
2018-03-16T03:51:55.858Z,86.70
2018-03-16T03:52:56.021Z,107.50
2018-03-16T03:53:55.799Z,91.20
2018-03-16T03:54:55.774Z,93.60
2018-03-16T03:55:55.851Z,98.90
2018-03-16T03:56:55.726Z,98.50
2018-03-16T03:57:55.704Z,63.40
2018-03-16T03:58:55.695Z,97.20
2018-03-16T03:59:55.659Z,111.80
2018-03-16T04:00:55.631Z,110.80
2018-03-16T04:01:55.611Z,106.80
2018-03-16T04:02:55.584Z,112.20
2018-03-16T04:03:55.567Z,110.90
2018-03-16T04:04:55.539Z,106.20
2018-03-16T04:05:55.515Z,73.80
2018-03-16T04:06:55.494Z,88.50
2018-03-16T04:07:55.467Z,103.00
2018-03-16T04:08:55.437Z,87.70
2018-03-16T04:09:55.422Z,97.30
2018-03-16T04:10:55.391Z,107.80
2018-03-16T04:11:55.367Z,99.30
2018-03-16T04:12:55.342Z,108.50
2018-03-16T04:13:55.323Z,118.60
2018-03-16T04:14:55.328Z,111.20
2018-03-16T04:15:55.274Z,109.10
2018-03-16T04:16:55.246Z,117.60
2018-03-16T04:17:55.361Z,119.40
2018-03-16T04:18:55.211Z,118.40
2018-03-16T04:19:55.177Z,114.50
2018-03-16T04:20:55.222Z,117.30
2018-03-16T04:21:55.127Z,116.90
2018-03-16T04:22:55.101Z,124.80
2018-03-16T04:23:55.085Z,112.80
2018-03-16T04:24:55.066Z,113.20
2018-03-16T04:25:55.059Z,122.80
2018-03-16T04:26:55.030Z,133.80
2018-03-16T04:27:54.987Z,114.40
2018-03-16T04:28:54.959Z,114.10
2018-03-16T04:29:54.936Z,124.70
2018-03-16T04:30:54.907Z,137.10
2018-03-16T04:31:54.885Z,125.00
2018-03-16T04:32:54.861Z,123.80
2018-03-16T04:33:54.855Z,122.70
2018-03-16T04:34:54.814Z,128.90
2018-03-16T04:35:54.790Z,117.40
2018-03-16T04:36:54.767Z,133.20
2018-03-16T04:37:54.740Z,125.40
2018-03-16T04:38:54.716Z,126.70
2018-03-16T04:39:54.693Z,121.00
2018-03-16T04:40:54.674Z,113.30
2018-03-16T04:41:54.644Z,137.10
2018-03-16T04:42:54.625Z,135.00
2018-03-16T04:43:54.605Z,128.60
2018-03-16T04:44:54.573Z,125.50
2018-03-16T04:45:54.548Z,140.30
2018-03-16T04:46:54.542Z,129.80
2018-03-16T04:47:54.503Z,132.40
2018-03-16T04:48:54.473Z,143.30
2018-03-16T04:49:54.452Z,112.80
2018-03-16T04:50:54.477Z,126.00
2018-03-16T04:51:54.422Z,141.00
2018-03-16T04:52:54.379Z,131.30
2018-03-16T04:53:54.491Z,142.30
2018-03-16T04:54:54.331Z,140.50
2018-03-16T04:55:54.304Z,142.80
2018-03-16T04:56:54.284Z,142.20
2018-03-16T04:57:54.256Z,111.30
2018-03-16T04:58:54.231Z,111.30
2018-03-16T04:59:54.211Z,99.10
2018-03-16T05:00:54.182Z,110.80
2018-03-16T05:01:54.161Z,133.50
2018-03-16T05:02:54.141Z,132.40
2018-03-16T05:03:54.115Z,142.80
2018-03-16T05:04:54.096Z,145.60
2018-03-16T05:05:54.061Z,143.60
2018-03-16T05:06:54.041Z,137.90
2018-03-16T05:07:54.021Z,132.10
2018-03-16T05:08:53.998Z,148.90
2018-03-16T05:09:53.963Z,144.00
2018-03-16T05:10:53.940Z,142.70
2018-03-16T05:11:53.916Z,135.50
2018-03-16T05:12:53.900Z,117.40
2018-03-16T05:13:53.871Z,124.40
2018-03-16T05:14:53.844Z,141.00
2018-03-16T05:15:53.881Z,136.70
2018-03-16T05:16:53.803Z,145.20
2018-03-16T05:17:53.769Z,129.10
2018-03-16T05:18:53.750Z,147.30
2018-03-16T05:19:53.743Z,149.30
2018-03-16T05:20:53.750Z,134.40
2018-03-16T05:21:53.672Z,88.30
2018-03-16T05:22:53.650Z,101.60
2018-03-16T05:23:53.624Z,132.50
2018-03-16T05:24:53.598Z,126.40
2018-03-16T05:25:53.578Z,126.50
2018-03-16T05:26:53.552Z,139.20
2018-03-16T05:27:53.541Z,147.00
2018-03-16T05:28:53.505Z,132.00
2018-03-16T05:29:53.479Z,140.50
2018-03-16T05:30:53.452Z,133.80
2018-03-16T05:31:53.429Z,148.20
2018-03-16T05:32:53.402Z,134.40
2018-03-16T05:33:53.379Z,140.90
2018-03-16T05:34:53.358Z,118.30
2018-03-16T05:35:53.330Z,140.50
2018-03-16T05:36:53.306Z,143.60
2018-03-16T05:37:53.279Z,143.30
2018-03-16T05:38:53.258Z,128.90
2018-03-16T05:39:53.232Z,126.30
2018-03-16T05:40:53.206Z,137.00
2018-03-16T05:41:53.185Z,140.20
2018-03-16T05:42:53.161Z,136.80
2018-03-16T05:43:53.137Z,116.60
2018-03-16T05:44:53.110Z,137.70
2018-03-16T05:45:53.086Z,141.70
2018-03-16T05:46:53.068Z,145.30
2018-03-16T05:47:53.042Z,143.40
2018-03-16T05:48:53.029Z,136.40
2018-03-16T05:49:52.988Z,144.60
2018-03-16T05:50:52.973Z,143.10
2018-03-16T05:51:52.946Z,92.70
2018-03-16T05:52:52.918Z,151.00
2018-03-16T05:53:52.897Z,118.30
2018-03-16T05:54:52.893Z,146.40
2018-03-16T05:55:52.840Z,156.90
2018-03-16T05:56:52.835Z,136.60
2018-03-16T05:57:52.799Z,147.30
2018-03-16T05:58:52.766Z,130.10
2018-03-16T05:59:52.745Z,129.40
2018-03-16T06:00:52.749Z,137.40
2018-03-16T06:01:52.695Z,108.30
2018-03-16T06:02:52.677Z,138.00
2018-03-16T06:03:52.650Z,158.20
2018-03-16T06:04:52.621Z,151.20
2018-03-16T06:05:52.594Z,125.60
2018-03-16T06:06:52.568Z,158.80
2018-03-16T06:07:52.554Z,156.00
2018-03-16T06:08:52.526Z,140.70
2018-03-16T06:09:52.498Z,157.40
2018-03-16T06:10:52.494Z,151.60
2018-03-16T06:11:52.444Z,149.70
2018-03-16T06:12:52.420Z,136.80
2018-03-16T06:13:52.408Z,155.80
2018-03-16T06:14:52.378Z,142.00
2018-03-16T06:15:52.344Z,129.70
2018-03-16T06:16:52.326Z,148.50
2018-03-16T06:17:52.302Z,152.20
2018-03-16T06:18:52.275Z,146.80
2018-03-16T06:19:52.247Z,145.70
2018-03-16T06:20:52.223Z,149.70
2018-03-16T06:21:52.256Z,144.00
2018-03-16T06:22:52.175Z,150.70
2018-03-16T06:23:52.151Z,158.20
2018-03-16T06:24:52.185Z,167.80
2018-03-16T06:25:52.102Z,154.70
2018-03-16T06:26:52.078Z,158.30
2018-03-16T06:27:52.054Z,164.30
2018-03-16T06:28:52.024Z,157.30
2018-03-16T06:29:52.000Z,148.30
2018-03-16T06:30:51.983Z,157.70
2018-03-16T06:31:51.951Z,159.10
2018-03-16T06:32:51.925Z,153.70
2018-03-16T06:33:51.953Z,167.90
2018-03-16T06:34:51.875Z,171.30
2018-03-16T06:35:51.853Z,116.60
2018-03-16T06:36:51.830Z,158.30
2018-03-16T06:37:51.905Z,167.30
2018-03-16T06:38:51.792Z,155.50
2018-03-16T06:39:51.758Z,152.90
2018-03-16T06:40:51.733Z,154.60
2018-03-16T06:41:51.702Z,153.60
2018-03-16T06:42:51.688Z,157.10
2018-03-16T06:43:51.654Z,106.40
2018-03-16T06:44:51.771Z,86.80
2018-03-16T06:45:51.604Z,146.40
2018-03-16T06:46:51.592Z,120.10
2018-03-16T06:47:51.559Z,131.60
2018-03-16T06:48:51.528Z,130.20
2018-03-16T06:49:51.524Z,145.90
2018-03-16T06:50:51.482Z,135.80
2018-03-16T06:51:51.486Z,121.80
2018-03-16T06:52:51.438Z,146.90
2018-03-16T06:53:51.408Z,146.10
2018-03-16T06:54:51.391Z,138.90
2018-03-16T06:55:51.366Z,109.30
2018-03-16T06:56:51.331Z,124.70
2018-03-16T06:57:51.321Z,116.40
2018-03-16T06:58:51.291Z,137.40
2018-03-16T06:59:51.280Z,142.10
2018-03-16T07:00:51.233Z,131.10
2018-03-16T07:01:51.207Z,130.60
2018-03-16T07:02:51.206Z,132.80
2018-03-16T07:03:51.159Z,104.90
2018-03-16T07:04:51.134Z,129.00
2018-03-16T07:05:51.139Z,106.60
2018-03-16T07:06:51.091Z,113.00
2018-03-16T07:07:51.059Z,94.90
2018-03-16T07:08:51.048Z,125.20
2018-03-16T07:09:51.011Z,137.90
2018-03-16T07:10:50.990Z,139.40
2018-03-16T07:11:50.960Z,141.90
2018-03-16T07:12:50.934Z,133.70
2018-03-16T07:13:50.923Z,136.90
2018-03-16T07:14:50.885Z,143.90
2018-03-16T07:15:50.860Z,144.80
2018-03-16T07:16:50.834Z,133.90
2018-03-16T07:17:50.821Z,118.10
2018-03-16T07:18:50.790Z,141.00
2018-03-16T07:19:50.764Z,136.30
2018-03-16T07:20:50.739Z,124.10
2018-03-16T07:21:50.714Z,131.30
2018-03-16T07:22:50.698Z,123.90
2018-03-16T07:23:50.667Z,135.50
2018-03-16T07:24:50.641Z,119.50
2018-03-16T07:25:50.616Z,117.30
2018-03-16T07:26:50.594Z,115.00
2018-03-16T07:27:50.565Z,134.30
2018-03-16T07:28:50.544Z,134.50
2018-03-16T07:29:50.516Z,140.20
2018-03-16T07:30:50.545Z,104.00
2018-03-16T07:31:50.467Z,136.30
2018-03-16T07:32:50.455Z,138.10
2018-03-16T07:33:50.431Z,134.30
2018-03-16T07:34:50.395Z,130.30
2018-03-16T07:35:50.373Z,129.70
2018-03-16T07:36:50.351Z,117.10
2018-03-16T07:37:50.326Z,124.90
2018-03-16T07:38:50.353Z,116.40
2018-03-16T07:39:50.273Z,106.90
2018-03-16T07:40:50.249Z,97.20
2018-03-16T07:41:50.224Z,107.10
2018-03-16T07:42:50.229Z,116.30
2018-03-16T07:43:50.175Z,114.80
2018-03-16T07:44:50.162Z,119.90
2018-03-16T07:45:50.191Z,120.80
2018-03-16T07:46:50.104Z,118.90
2018-03-16T07:47:50.084Z,125.20
2018-03-16T07:48:50.059Z,125.00
2018-03-16T07:49:50.025Z,121.80
2018-03-16T07:50:50.018Z,121.80
2018-03-16T07:51:49.984Z,118.20
2018-03-16T07:52:49.953Z,113.20
2018-03-16T07:53:49.930Z,120.80
2018-03-16T07:54:49.913Z,121.90
2018-03-16T07:55:49.890Z,120.80
2018-03-16T07:56:49.856Z,129.50
2018-03-16T07:57:49.849Z,126.30
2018-03-16T07:58:49.810Z,127.70
2018-03-16T07:59:49.786Z,126.70
2018-03-16T08:00:49.770Z,124.60
2018-03-16T08:01:49.872Z,128.30
2018-03-16T08:02:49.714Z,117.00
2018-03-16T08:03:49.691Z,128.60
2018-03-16T08:04:49.669Z,117.80
2018-03-16T08:05:49.642Z,103.00
2018-03-16T08:06:49.619Z,109.20
2018-03-16T08:07:49.595Z,105.20
2018-03-16T08:08:49.633Z,104.30
2018-03-16T08:09:49.548Z,100.00
2018-03-16T08:10:49.521Z,94.30
2018-03-16T08:11:49.502Z,87.50
2018-03-16T08:12:49.490Z,88.20
2018-03-16T08:13:49.451Z,91.60
2018-03-16T08:14:49.424Z,88.10
2018-03-16T08:15:49.401Z,67.00
2018-03-16T08:16:49.388Z,64.90
2018-03-16T08:17:49.358Z,98.70
2018-03-16T08:18:49.335Z,63.60
2018-03-16T08:19:49.308Z,85.70
2018-03-16T08:20:49.284Z,90.10
2018-03-16T08:21:49.257Z,88.70
2018-03-16T08:22:49.233Z,81.00
2018-03-16T08:23:49.211Z,92.10
2018-03-16T08:24:49.187Z,81.50
2018-03-16T08:25:49.157Z,88.40
2018-03-16T08:26:49.244Z,93.40
2018-03-16T08:27:49.112Z,84.60
2018-03-16T08:28:49.088Z,86.90
2018-03-16T08:29:49.160Z,93.20
2018-03-16T08:30:49.047Z,99.30
2018-03-16T08:31:49.026Z,93.20
2018-03-16T08:32:48.988Z,103.30
2018-03-16T08:33:48.970Z,98.80
2018-03-16T08:34:48.940Z,93.00
2018-03-16T08:35:48.917Z,94.30
2018-03-16T08:36:48.898Z,101.10
2018-03-16T08:37:48.868Z,100.30
2018-03-16T08:38:48.845Z,93.40
2018-03-16T08:39:48.825Z,95.00
2018-03-16T08:40:48.798Z,88.20
2018-03-16T08:41:48.769Z,103.30
2018-03-16T08:42:48.747Z,84.20
2018-03-16T08:43:48.729Z,84.50
2018-03-16T08:44:48.710Z,85.70
2018-03-16T08:45:48.677Z,76.80
2018-03-16T08:46:48.648Z,89.90
2018-03-16T08:47:48.627Z,89.90
2018-03-16T08:48:48.603Z,93.90
2018-03-16T08:49:48.615Z,83.30
2018-03-16T08:50:48.554Z,81.90
2018-03-16T08:51:48.529Z,94.20
2018-03-16T08:52:48.511Z,96.20
2018-03-16T08:53:48.478Z,88.60
2018-03-16T08:54:48.455Z,89.80
2018-03-16T08:55:48.433Z,86.10
2018-03-16T08:56:48.526Z,84.70
2018-03-16T08:57:48.395Z,76.00
2018-03-16T08:58:48.359Z,84.60
2018-03-16T08:59:48.388Z,85.60
2018-03-16T09:00:48.336Z,85.70
2018-03-16T09:01:48.287Z,73.10
2018-03-16T09:02:48.298Z,93.60
2018-03-16T09:03:48.239Z,87.70
2018-03-16T09:04:48.211Z,91.80
2018-03-16T09:05:48.196Z,96.40
2018-03-16T09:06:48.169Z,96.50
2018-03-16T09:07:48.141Z,92.60
2018-03-16T09:08:48.118Z,95.60
2018-03-16T09:09:48.096Z,101.50
2018-03-16T09:10:48.072Z,95.60
2018-03-16T09:11:48.049Z,102.40
2018-03-16T09:12:48.020Z,108.40
2018-03-16T09:13:48.003Z,96.30
2018-03-16T09:14:47.972Z,102.40
2018-03-16T09:15:47.951Z,99.30
2018-03-16T09:16:47.926Z,101.70
2018-03-16T09:17:47.910Z,99.30
2018-03-16T09:18:47.883Z,104.10
2018-03-16T09:19:47.852Z,100.20
2018-03-16T09:20:47.832Z,96.00
2018-03-16T09:21:47.814Z,97.10
2018-03-16T09:22:47.864Z,86.30
2018-03-16T09:23:47.765Z,90.10
2018-03-16T09:24:47.735Z,82.00
2018-03-16T09:25:47.721Z,90.40
2018-03-16T09:26:47.684Z,94.60
2018-03-16T09:27:47.662Z,98.20
2018-03-16T09:28:47.644Z,92.90
2018-03-16T09:29:47.655Z,85.70
2018-03-16T09:30:47.589Z,85.50
2018-03-16T09:31:47.564Z,86.40
2018-03-16T09:32:47.544Z,86.90
2018-03-16T09:33:47.517Z,81.20
2018-03-16T09:34:47.501Z,76.00
2018-03-16T09:35:47.471Z,69.00
2018-03-16T09:36:47.446Z,79.00
2018-03-16T09:37:47.420Z,74.40
2018-03-16T09:38:47.419Z,64.60
2018-03-16T09:39:47.373Z,70.70
2018-03-16T09:40:47.350Z,69.80
2018-03-16T09:41:47.377Z,62.20
2018-03-16T09:42:47.301Z,66.30
2018-03-16T09:43:47.288Z,69.10
2018-03-16T09:44:47.251Z,72.20
2018-03-16T09:45:47.246Z,67.10
2018-03-16T09:46:47.208Z,69.40
2018-03-16T09:47:47.183Z,73.20
2018-03-16T09:48:47.158Z,67.30
2018-03-16T09:49:47.137Z,65.80
2018-03-16T09:50:47.110Z,61.90
2018-03-16T09:51:47.096Z,57.30
2018-03-16T09:52:47.074Z,59.40
2018-03-16T09:53:47.038Z,53.70
2018-03-16T09:54:47.017Z,50.30
2018-03-16T09:55:46.991Z,45.50
2018-03-16T09:56:46.976Z,53.40
2018-03-16T09:57:46.941Z,48.70
2018-03-16T09:58:46.918Z,50.40
2018-03-16T09:59:46.897Z,50.60
2018-03-16T10:00:46.871Z,53.80
2018-03-16T10:01:46.919Z,52.70
2018-03-16T10:02:46.826Z,49.60
2018-03-16T10:03:46.800Z,51.50
2018-03-16T10:04:46.775Z,49.30
2018-03-16T10:05:46.757Z,49.60
2018-03-16T10:06:46.748Z,49.60
2018-03-16T10:07:46.704Z,44.00
2018-03-16T10:08:46.685Z,49.10
2018-03-16T10:09:46.655Z,52.80
2018-03-16T10:10:46.653Z,47.60
2018-03-16T10:11:46.609Z,44.30
2018-03-16T10:12:46.585Z,45.70
2018-03-16T10:13:46.566Z,40.50
2018-03-16T10:14:46.605Z,40.20
2018-03-16T10:15:46.514Z,44.50
2018-03-16T10:16:46.486Z,45.30
2018-03-16T10:17:46.524Z,43.00
2018-03-16T10:18:46.437Z,42.30
2018-03-16T10:19:46.412Z,40.80
2018-03-16T10:20:46.387Z,40.60
2018-03-16T10:21:46.366Z,43.80
2018-03-16T10:22:46.353Z,47.80
2018-03-16T10:23:46.318Z,47.60
2018-03-16T10:24:46.292Z,43.70
2018-03-16T10:25:46.272Z,42.30
2018-03-16T10:26:46.245Z,40.30
2018-03-16T10:27:46.223Z,39.90
2018-03-16T10:28:46.195Z,36.50
2018-03-16T10:29:46.187Z,48.80
2018-03-16T10:30:46.147Z,41.20
2018-03-16T10:31:46.135Z,38.70
2018-03-16T10:32:46.103Z,40.90
2018-03-16T10:33:46.077Z,33.60
2018-03-16T10:34:46.058Z,37.20
2018-03-16T10:35:46.036Z,37.00
2018-03-16T10:36:46.032Z,36.80
2018-03-16T10:37:45.982Z,41.40
2018-03-16T10:38:45.956Z,40.60
2018-03-16T10:39:45.933Z,32.50
2018-03-16T10:40:45.912Z,33.90
2018-03-16T10:41:45.880Z,42.90
2018-03-16T10:42:45.888Z,45.10
2018-03-16T10:43:45.835Z,43.40
2018-03-16T10:44:45.816Z,40.90
2018-03-16T10:45:45.784Z,46.30
2018-03-16T10:46:45.760Z,44.30
2018-03-16T10:47:45.747Z,40.20
2018-03-16T10:48:45.712Z,43.60
2018-03-16T10:49:45.690Z,42.80
2018-03-16T10:50:45.665Z,42.80
2018-03-16T10:51:45.641Z,37.90
2018-03-16T10:52:45.630Z,40.60
2018-03-16T10:53:45.592Z,41.50
2018-03-16T10:54:45.570Z,40.00
2018-03-16T10:55:45.547Z,41.80
2018-03-16T10:56:45.521Z,41.50
2018-03-16T10:57:45.499Z,36.60
2018-03-16T10:58:45.472Z,37.00
2018-03-16T10:59:45.544Z,35.80
2018-03-16T11:00:45.425Z,32.10
2018-03-16T11:01:45.405Z,32.30
2018-03-16T11:02:45.382Z,40.80
2018-03-16T11:03:45.359Z,36.30
2018-03-16T11:04:45.328Z,39.30
2018-03-16T11:05:45.314Z,45.00
2018-03-16T11:06:45.590Z,43.00
2018-03-16T11:07:45.259Z,39.20
2018-03-16T11:08:45.245Z,39.40
2018-03-16T11:09:45.252Z,34.60
2018-03-16T11:10:45.185Z,37.40
2018-03-16T11:11:45.159Z,38.20
2018-03-16T11:12:45.243Z,34.70
2018-03-16T11:13:45.118Z,33.50
2018-03-16T11:14:45.144Z,40.20
2018-03-16T11:15:45.076Z,39.70
2018-03-16T11:16:45.038Z,37.30
2018-03-16T11:17:45.016Z,39.70
2018-03-16T11:18:44.992Z,37.20
2018-03-16T11:19:44.965Z,35.10
2018-03-16T11:20:44.945Z,35.80
2018-03-16T11:21:44.928Z,37.10
2018-03-16T11:22:44.905Z,40.30
2018-03-16T11:23:44.876Z,32.40
2018-03-16T11:24:44.850Z,34.60
2018-03-16T11:25:44.836Z,34.90
2018-03-16T11:26:44.800Z,29.90
2018-03-16T11:27:44.779Z,33.90
2018-03-16T11:28:44.766Z,31.80
2018-03-16T11:29:44.735Z,33.40
2018-03-16T11:30:44.712Z,28.50
2018-03-16T11:31:44.701Z,28.70
2018-03-16T11:32:44.669Z,28.50
2018-03-16T11:33:44.633Z,29.60
2018-03-16T11:34:44.678Z,32.00
2018-03-16T11:35:44.588Z,26.30
2018-03-16T11:36:44.564Z,29.20
2018-03-16T11:37:44.547Z,30.90
2018-03-16T11:38:44.518Z,27.10
2018-03-16T11:39:44.503Z,28.80
2018-03-16T11:40:44.489Z,30.60
2018-03-16T11:41:44.445Z,30.90
2018-03-16T11:42:44.434Z,28.60
2018-03-16T11:43:44.413Z,27.20
2018-03-16T11:44:44.376Z,22.70
2018-03-16T11:45:44.370Z,29.50
2018-03-16T11:46:44.327Z,29.20
2018-03-16T11:47:44.308Z,25.40
2018-03-16T11:48:44.290Z,29.20
2018-03-16T11:49:44.264Z,27.80
2018-03-16T11:50:44.239Z,28.40
2018-03-16T11:51:44.213Z,26.60
2018-03-16T11:52:44.197Z,28.60
2018-03-16T11:53:44.164Z,29.40
2018-03-16T11:54:44.145Z,28.60
2018-03-16T11:55:44.131Z,24.60
2018-03-16T11:56:44.094Z,30.50
2018-03-16T11:57:44.073Z,29.20
2018-03-16T11:58:44.052Z,30.00
2018-03-16T11:59:44.030Z,31.50
2018-03-16T12:00:44.013Z,28.40
2018-03-16T12:01:43.988Z,28.70
2018-03-16T12:02:43.951Z,25.40
2018-03-16T12:03:43.931Z,24.90
2018-03-16T12:04:43.904Z,24.40
2018-03-16T12:05:43.879Z,24.10
2018-03-16T12:06:43.862Z,26.20
2018-03-16T12:07:43.884Z,25.70
2018-03-16T12:08:43.818Z,24.40
2018-03-16T12:09:43.787Z,24.00
2018-03-16T12:10:43.820Z,25.90
2018-03-16T12:11:43.740Z,25.80
2018-03-16T12:12:43.721Z,22.60
2018-03-16T12:13:43.693Z,25.40
2018-03-16T12:14:43.670Z,25.40
2018-03-16T12:15:43.654Z,25.90
2018-03-16T12:16:43.621Z,24.30
2018-03-16T12:17:43.598Z,22.60
2018-03-16T12:18:43.581Z,25.20
2018-03-16T12:19:43.550Z,24.60
2018-03-16T12:20:43.531Z,22.90
2018-03-16T12:21:43.503Z,29.50
2018-03-16T12:22:43.502Z,25.20
2018-03-16T12:23:43.461Z,25.00
2018-03-16T12:24:43.444Z,23.40
2018-03-16T12:25:43.407Z,23.10
2018-03-16T12:26:43.391Z,24.50
2018-03-16T12:27:43.362Z,23.80
2018-03-16T12:28:49.814Z,23.90
2018-03-16T12:29:43.444Z,21.90
2018-03-16T12:30:43.290Z,26.50
2018-03-16T12:31:43.275Z,25.40
2018-03-16T12:32:43.281Z,21.50
2018-03-16T12:33:43.219Z,24.50
2018-03-16T12:34:43.215Z,25.40
2018-03-16T12:35:43.182Z,25.20
2018-03-16T12:36:43.152Z,24.70
2018-03-16T12:37:43.127Z,21.90
2018-03-16T12:38:43.103Z,25.10
2018-03-16T12:39:43.081Z,23.50
2018-03-16T12:40:43.054Z,23.70
2018-03-16T12:41:43.040Z,22.90
2018-03-16T12:42:43.008Z,24.90
2018-03-16T12:43:42.985Z,23.60